sensor_id;sensor_type;location;lat;lon;timestamp;P1;durP1;ratioP1;P2;durP2;ratioP2
52668;SDS011;59898;52.786;6.892;2023-02-28T00:03:05;12.05;;;7.30;;
52668;SDS011;59898;52.786;6.892;2023-02-28T00:06:25;13.00;;;7.63;;
52668;SDS011;59898;52.786;6.892;2023-02-28T00:09:46;12.52;;;6.93;;
52668;SDS011;59898;52.786;6.892;2023-02-28T00:13:07;11.68;;;7.32;;
52668;SDS011;59898;52.786;6.892;2023-02-28T00:16:28;11.52;;;6.15;;
52668;SDS011;59898;52.786;6.892;2023-02-28T00:19:48;8.10;;;5.00;;
52668;SDS011;59898;52.786;6.892;2023-02-28T00:23:10;8.55;;;4.60;;
52668;SDS011;59898;52.786;6.892;2023-02-28T00:26:31;9.68;;;4.78;;
52668;SDS011;59898;52.786;6.892;2023-02-28T00:29:51;7.53;;;4.45;;
52668;SDS011;59898;52.786;6.892;2023-02-28T00:33:14;8.18;;;4.45;;
52668;SDS011;59898;52.786;6.892;2023-02-28T00:36:34;8.60;;;4.20;;
52668;SDS011;59898;52.786;6.892;2023-02-28T00:39:55;9.95;;;4.53;;
52668;SDS011;59898;52.786;6.892;2023-02-28T00:43:16;10.05;;;4.82;;
52668;SDS011;59898;52.786;6.892;2023-02-28T00:46:37;8.75;;;4.20;;
52668;SDS011;59898;52.786;6.892;2023-02-28T00:49:57;11.15;;;4.60;;
52668;SDS011;59898;52.786;6.892;2023-02-28T00:53:18;7.95;;;4.25;;
52668;SDS011;59898;52.786;6.892;2023-02-28T00:56:39;7.13;;;4.82;;
52668;SDS011;59898;52.786;6.892;2023-02-28T00:59:59;8.50;;;4.50;;
52668;SDS011;59898;52.786;6.892;2023-02-28T01:03:20;9.82;;;5.40;;
52668;SDS011;59898;52.786;6.892;2023-02-28T01:06:42;8.05;;;4.82;;
52668;SDS011;59898;52.786;6.892;2023-02-28T01:10:03;9.00;;;5.18;;
52668;SDS011;59898;52.786;6.892;2023-02-28T01:13:24;8.43;;;4.10;;
52668;SDS011;59898;52.786;6.892;2023-02-28T01:16:45;7.38;;;5.88;;
52668;SDS011;59898;52.786;6.892;2023-02-28T01:20:06;11.15;;;5.40;;
52668;SDS011;59898;52.786;6.892;2023-02-28T01:23:27;10.48;;;5.97;;
52668;SDS011;59898;52.786;6.892;2023-02-28T01:26:48;9.80;;;4.78;;
52668;SDS011;59898;52.786;6.892;2023-02-28T01:30:09;8.93;;;5.00;;
52668;SDS011;59898;52.786;6.892;2023-02-28T01:33:30;8.27;;;5.35;;
52668;SDS011;59898;52.786;6.892;2023-02-28T01:36:51;11.15;;;5.00;;
52668;SDS011;59898;52.786;6.892;2023-02-28T01:40:11;8.77;;;5.45;;
52668;SDS011;59898;52.786;6.892;2023-02-28T01:47:02;8.43;;;5.10;;
52668;SDS011;59898;52.786;6.892;2023-02-28T01:50:24;7.70;;;4.57;;
52668;SDS011;59898;52.786;6.892;2023-02-28T01:53:49;14.13;;;5.82;;
52668;SDS011;59898;52.786;6.892;2023-02-28T01:57:15;9.18;;;5.45;;
52668;SDS011;59898;52.786;6.892;2023-02-28T02:00:39;8.45;;;5.10;;
52668;SDS011;59898;52.786;6.892;2023-02-28T02:07:23;12.20;;;5.43;;
52668;SDS011;59898;52.786;6.892;2023-02-28T02:10:54;6.97;;;5.22;;
52668;SDS011;59898;52.786;6.892;2023-02-28T02:14:31;9.48;;;5.13;;
52668;SDS011;59898;52.786;6.892;2023-02-28T02:18:06;7.95;;;5.38;;
52668;SDS011;59898;52.786;6.892;2023-02-28T02:21:56;8.63;;;5.90;;
52668;SDS011;59898;52.786;6.892;2023-02-28T02:25:26;8.40;;;5.32;;
52668;SDS011;59898;52.786;6.892;2023-02-28T02:40:16;12.82;;;6.90;;
52668;SDS011;59898;52.786;6.892;2023-02-28T02:43:46;10.32;;;6.53;;
52668;SDS011;59898;52.786;6.892;2023-02-28T02:47:17;11.75;;;6.55;;
52668;SDS011;59898;52.786;6.892;2023-02-28T02:50:43;9.57;;;6.00;;
52668;SDS011;59898;52.786;6.892;2023-02-28T02:54:11;9.55;;;6.28;;
52668;SDS011;59898;52.786;6.892;2023-02-28T03:01:31;11.10;;;6.47;;
52668;SDS011;59898;52.786;6.892;2023-02-28T03:04:53;14.15;;;7.15;;
52668;SDS011;59898;52.786;6.892;2023-02-28T03:08:20;13.38;;;6.43;;
52668;SDS011;59898;52.786;6.892;2023-02-28T03:11:41;10.82;;;7.18;;
52668;SDS011;59898;52.786;6.892;2023-02-28T03:15:08;10.25;;;5.88;;
52668;SDS011;59898;52.786;6.892;2023-02-28T03:26:12;8.88;;;5.80;;
52668;SDS011;59898;52.786;6.892;2023-02-28T03:29:58;9.18;;;5.55;;
52668;SDS011;59898;52.786;6.892;2023-02-28T03:33:46;8.38;;;7.22;;
52668;SDS011;59898;52.786;6.892;2023-02-28T03:37:16;9.55;;;6.53;;
52668;SDS011;59898;52.786;6.892;2023-02-28T03:40:41;13.48;;;7.00;;
52668;SDS011;59898;52.786;6.892;2023-02-28T03:44:13;10.63;;;7.05;;
52668;SDS011;59898;52.786;6.892;2023-02-28T03:47:53;8.80;;;6.47;;
52668;SDS011;59898;52.786;6.892;2023-02-28T03:51:21;12.48;;;7.38;;
52668;SDS011;59898;52.786;6.892;2023-02-28T03:54:45;10.82;;;6.32;;
52668;SDS011;59898;52.786;6.892;2023-02-28T03:58:27;10.88;;;7.35;;
52668;SDS011;59898;52.786;6.892;2023-02-28T04:01:55;10.27;;;7.57;;
52668;SDS011;59898;52.786;6.892;2023-02-28T04:05:19;9.98;;;6.95;;
52668;SDS011;59898;52.786;6.892;2023-02-28T04:08:41;10.73;;;7.03;;
52668;SDS011;59898;52.786;6.892;2023-02-28T04:12:01;9.80;;;6.78;;
52668;SDS011;59898;52.786;6.892;2023-02-28T04:15:22;10.65;;;7.32;;
52668;SDS011;59898;52.786;6.892;2023-02-28T04:18:44;10.00;;;6.93;;
52668;SDS011;59898;52.786;6.892;2023-02-28T04:22:05;10.98;;;7.47;;
52668;SDS011;59898;52.786;6.892;2023-02-28T04:25:25;9.77;;;6.50;;
52668;SDS011;59898;52.786;6.892;2023-02-28T04:28:46;15.45;;;8.20;;
52668;SDS011;59898;52.786;6.892;2023-02-28T04:32:07;10.88;;;7.45;;
52668;SDS011;59898;52.786;6.892;2023-02-28T04:35:27;14.27;;;8.50;;
52668;SDS011;59898;52.786;6.892;2023-02-28T04:38:48;14.95;;;7.93;;
52668;SDS011;59898;52.786;6.892;2023-02-28T04:42:09;12.65;;;8.48;;
52668;SDS011;59898;52.786;6.892;2023-02-28T04:45:31;11.07;;;8.18;;
52668;SDS011;59898;52.786;6.892;2023-02-28T04:48:53;21.23;;;8.40;;
52668;SDS011;59898;52.786;6.892;2023-02-28T04:52:14;11.63;;;7.70;;
52668;SDS011;59898;52.786;6.892;2023-02-28T04:55:35;11.57;;;7.45;;
52668;SDS011;59898;52.786;6.892;2023-02-28T04:58:55;11.88;;;7.32;;
52668;SDS011;59898;52.786;6.892;2023-02-28T05:02:16;10.00;;;7.35;;
52668;SDS011;59898;52.786;6.892;2023-02-28T05:05:37;11.23;;;7.45;;
52668;SDS011;59898;52.786;6.892;2023-02-28T05:08:58;12.02;;;7.28;;
52668;SDS011;59898;52.786;6.892;2023-02-28T05:12:18;14.65;;;7.25;;
52668;SDS011;59898;52.786;6.892;2023-02-28T05:15:40;8.77;;;6.60;;
52668;SDS011;59898;52.786;6.892;2023-02-28T05:19:00;16.77;;;8.43;;
52668;SDS011;59898;52.786;6.892;2023-02-28T05:22:21;10.45;;;8.35;;
52668;SDS011;59898;52.786;6.892;2023-02-28T05:25:42;8.88;;;7.28;;
52668;SDS011;59898;52.786;6.892;2023-02-28T05:29:02;11.05;;;7.85;;
52668;SDS011;59898;52.786;6.892;2023-02-28T05:32:23;13.32;;;8.25;;
52668;SDS011;59898;52.786;6.892;2023-02-28T05:35:44;10.80;;;7.22;;
52668;SDS011;59898;52.786;6.892;2023-02-28T05:39:05;12.63;;;7.13;;
52668;SDS011;59898;52.786;6.892;2023-02-28T05:42:27;10.35;;;6.63;;
52668;SDS011;59898;52.786;6.892;2023-02-28T05:45:48;10.05;;;6.90;;
52668;SDS011;59898;52.786;6.892;2023-02-28T05:49:09;12.60;;;7.15;;
52668;SDS011;59898;52.786;6.892;2023-02-28T05:52:29;9.60;;;5.82;;
52668;SDS011;59898;52.786;6.892;2023-02-28T05:55:50;10.35;;;7.22;;
52668;SDS011;59898;52.786;6.892;2023-02-28T05:59:11;11.30;;;7.18;;
52668;SDS011;59898;52.786;6.892;2023-02-28T06:02:33;9.40;;;6.43;;
52668;SDS011;59898;52.786;6.892;2023-02-28T06:05:53;11.07;;;7.30;;
52668;SDS011;59898;52.786;6.892;2023-02-28T06:09:14;13.75;;;6.68;;
52668;SDS011;59898;52.786;6.892;2023-02-28T06:12:36;8.93;;;6.47;;
52668;SDS011;59898;52.786;6.892;2023-02-28T06:16:00;13.80;;;6.85;;
52668;SDS011;59898;52.786;6.892;2023-02-28T06:19:21;11.75;;;6.80;;
52668;SDS011;59898;52.786;6.892;2023-02-28T06:22:42;10.75;;;7.22;;
52668;SDS011;59898;52.786;6.892;2023-02-28T06:26:03;10.18;;;5.90;;
52668;SDS011;59898;52.786;6.892;2023-02-28T06:29:24;8.80;;;5.25;;
52668;SDS011;59898;52.786;6.892;2023-02-28T06:32:45;7.60;;;5.70;;
52668;SDS011;59898;52.786;6.892;2023-02-28T06:36:06;8.35;;;5.28;;
52668;SDS011;59898;52.786;6.892;2023-02-28T06:39:31;9.30;;;5.47;;
52668;SDS011;59898;52.786;6.892;2023-02-28T06:42:52;10.48;;;6.30;;
52668;SDS011;59898;52.786;6.892;2023-02-28T06:46:13;7.90;;;5.40;;
52668;SDS011;59898;52.786;6.892;2023-02-28T06:49:34;8.55;;;5.68;;
52668;SDS011;59898;52.786;6.892;2023-02-28T06:52:56;8.43;;;6.07;;
52668;SDS011;59898;52.786;6.892;2023-02-28T06:56:17;8.90;;;6.00;;
52668;SDS011;59898;52.786;6.892;2023-02-28T06:59:40;10.38;;;6.03;;
52668;SDS011;59898;52.786;6.892;2023-02-28T07:03:00;8.05;;;5.40;;
52668;SDS011;59898;52.786;6.892;2023-02-28T07:06:21;8.57;;;5.63;;
52668;SDS011;59898;52.786;6.892;2023-02-28T07:09:42;10.45;;;5.55;;
52668;SDS011;59898;52.786;6.892;2023-02-28T07:13:03;14.15;;;5.93;;
52668;SDS011;59898;52.786;6.892;2023-02-28T07:16:25;11.90;;;5.95;;
52668;SDS011;59898;52.786;6.892;2023-02-28T07:19:46;10.88;;;5.50;;
52668;SDS011;59898;52.786;6.892;2023-02-28T07:23:06;7.70;;;5.15;;
52668;SDS011;59898;52.786;6.892;2023-02-28T07:26:27;10.82;;;6.13;;
52668;SDS011;59898;52.786;6.892;2023-02-28T07:29:48;11.60;;;6.00;;
52668;SDS011;59898;52.786;6.892;2023-02-28T07:33:08;8.80;;;5.45;;
52668;SDS011;59898;52.786;6.892;2023-02-28T07:36:29;8.50;;;5.78;;
52668;SDS011;59898;52.786;6.892;2023-02-28T07:39:50;7.45;;;5.38;;
52668;SDS011;59898;52.786;6.892;2023-02-28T07:43:11;9.13;;;5.47;;
52668;SDS011;59898;52.786;6.892;2023-02-28T07:46:32;7.53;;;5.82;;
52668;SDS011;59898;52.786;6.892;2023-02-28T07:49:55;7.88;;;4.80;;
52668;SDS011;59898;52.786;6.892;2023-02-28T07:53:16;11.65;;;5.82;;
52668;SDS011;59898;52.786;6.892;2023-02-28T07:56:36;9.77;;;5.90;;
52668;SDS011;59898;52.786;6.892;2023-02-28T07:59:57;11.00;;;6.45;;
52668;SDS011;59898;52.786;6.892;2023-02-28T08:03:18;7.65;;;5.72;;
52668;SDS011;59898;52.786;6.892;2023-02-28T08:06:40;7.03;;;5.22;;
52668;SDS011;59898;52.786;6.892;2023-02-28T08:10:01;8.00;;;5.63;;
52668;SDS011;59898;52.786;6.892;2023-02-28T08:13:22;8.10;;;6.00;;
52668;SDS011;59898;52.786;6.892;2023-02-28T08:16:44;11.38;;;6.90;;
52668;SDS011;59898;52.786;6.892;2023-02-28T08:20:04;10.35;;;5.78;;
52668;SDS011;59898;52.786;6.892;2023-02-28T08:23:26;7.35;;;5.15;;
52668;SDS011;59898;52.786;6.892;2023-02-28T08:26:47;7.93;;;5.03;;
52668;SDS011;59898;52.786;6.892;2023-02-28T08:30:09;9.93;;;4.82;;
52668;SDS011;59898;52.786;6.892;2023-02-28T08:33:31;6.90;;;4.30;;
52668;SDS011;59898;52.786;6.892;2023-02-28T08:36:52;7.00;;;5.10;;
52668;SDS011;59898;52.786;6.892;2023-02-28T08:40:13;8.18;;;5.65;;
52668;SDS011;59898;52.786;6.892;2023-02-28T08:43:38;7.85;;;5.20;;
52668;SDS011;59898;52.786;6.892;2023-02-28T08:47:00;9.15;;;5.95;;
52668;SDS011;59898;52.786;6.892;2023-02-28T08:50:21;8.10;;;5.53;;
52668;SDS011;59898;52.786;6.892;2023-02-28T08:53:42;7.85;;;6.65;;
52668;SDS011;59898;52.786;6.892;2023-02-28T08:57:03;12.77;;;6.65;;
52668;SDS011;59898;52.786;6.892;2023-02-28T09:00:23;9.30;;;6.72;;
52668;SDS011;59898;52.786;6.892;2023-02-28T09:03:45;14.93;;;6.63;;
52668;SDS011;59898;52.786;6.892;2023-02-28T09:07:07;13.57;;;6.75;;
52668;SDS011;59898;52.786;6.892;2023-02-28T09:10:27;9.30;;;5.97;;
52668;SDS011;59898;52.786;6.892;2023-02-28T09:13:48;11.55;;;6.53;;
52668;SDS011;59898;52.786;6.892;2023-02-28T09:17:09;8.68;;;6.78;;
52668;SDS011;59898;52.786;6.892;2023-02-28T09:20:29;7.78;;;5.85;;
52668;SDS011;59898;52.786;6.892;2023-02-28T09:23:50;12.57;;;6.72;;
52668;SDS011;59898;52.786;6.892;2023-02-28T09:27:11;8.20;;;5.70;;
52668;SDS011;59898;52.786;6.892;2023-02-28T09:30:32;11.73;;;4.78;;
52668;SDS011;59898;52.786;6.892;2023-02-28T09:33:53;6.05;;;3.75;;
52668;SDS011;59898;52.786;6.892;2023-02-28T09:37:15;8.25;;;4.80;;
52668;SDS011;59898;52.786;6.892;2023-02-28T09:40:37;6.82;;;4.55;;
52668;SDS011;59898;52.786;6.892;2023-02-28T09:44:09;3.92;;;2.30;;
52668;SDS011;59898;52.786;6.892;2023-02-28T09:47:39;5.07;;;2.67;;
52668;SDS011;59898;52.786;6.892;2023-02-28T09:55:04;4.45;;;2.53;;
52668;SDS011;59898;52.786;6.892;2023-02-28T09:58:49;3.88;;;2.28;;
52668;SDS011;59898;52.786;6.892;2023-02-28T10:09:33;3.88;;;2.30;;
52668;SDS011;59898;52.786;6.892;2023-02-28T10:12:56;2.85;;;2.33;;
52668;SDS011;59898;52.786;6.892;2023-02-28T10:16:22;9.98;;;6.60;;
52668;SDS011;59898;52.786;6.892;2023-02-28T10:26:45;3.47;;;2.30;;
52668;SDS011;59898;52.786;6.892;2023-02-28T10:30:08;4.22;;;2.30;;
52668;SDS011;59898;52.786;6.892;2023-02-28T10:33:32;5.00;;;2.85;;
52668;SDS011;59898;52.786;6.892;2023-02-28T10:36:54;3.35;;;2.28;;
52668;SDS011;59898;52.786;6.892;2023-02-28T10:43:43;6.15;;;2.80;;
52668;SDS011;59898;52.786;6.892;2023-02-28T10:47:05;5.95;;;2.40;;
52668;SDS011;59898;52.786;6.892;2023-02-28T10:54:18;4.63;;;2.33;;
52668;SDS011;59898;52.786;6.892;2023-02-28T10:57:43;3.08;;;2.35;;
52668;SDS011;59898;52.786;6.892;2023-02-28T11:01:04;3.72;;;2.33;;
52668;SDS011;59898;52.786;6.892;2023-02-28T11:04:34;5.55;;;2.92;;
52668;SDS011;59898;52.786;6.892;2023-02-28T11:16:26;6.13;;;2.45;;
52668;SDS011;59898;52.786;6.892;2023-02-28T11:20:20;2.85;;;2.20;;
52668;SDS011;59898;52.786;6.892;2023-02-28T11:28:32;3.33;;;2.20;;
52668;SDS011;59898;52.786;6.892;2023-02-28T11:38:50;3.83;;;2.42;;
52668;SDS011;59898;52.786;6.892;2023-02-28T11:52:42;8.55;;;2.90;;
52668;SDS011;59898;52.786;6.892;2023-02-28T11:56:36;4.35;;;2.67;;
52668;SDS011;59898;52.786;6.892;2023-02-28T12:11:11;4.15;;;2.55;;
52668;SDS011;59898;52.786;6.892;2023-02-28T12:14:56;8.77;;;3.47;;
52668;SDS011;59898;52.786;6.892;2023-02-28T12:25:35;3.13;;;2.42;;
52668;SDS011;59898;52.786;6.892;2023-02-28T12:32:39;5.82;;;2.67;;
52668;SDS011;59898;52.786;6.892;2023-02-28T12:36:05;17.05;;;10.70;;
52668;SDS011;59898;52.786;6.892;2023-02-28T12:39:31;4.88;;;3.40;;
52668;SDS011;59898;52.786;6.892;2023-02-28T12:43:03;6.47;;;3.75;;
52668;SDS011;59898;52.786;6.892;2023-02-28T12:50:07;3.42;;;2.65;;
52668;SDS011;59898;52.786;6.892;2023-02-28T12:53:35;5.88;;;3.70;;
52668;SDS011;59898;52.786;6.892;2023-02-28T13:00:35;4.43;;;3.10;;
52668;SDS011;59898;52.786;6.892;2023-02-28T13:11:39;7.65;;;3.72;;
52668;SDS011;59898;52.786;6.892;2023-02-28T13:18:40;4.05;;;2.55;;
52668;SDS011;59898;52.786;6.892;2023-02-28T13:22:04;6.35;;;2.90;;
52668;SDS011;59898;52.786;6.892;2023-02-28T13:35:46;4.10;;;2.80;;
52668;SDS011;59898;52.786;6.892;2023-02-28T13:39:44;3.95;;;2.50;;
52668;SDS011;59898;52.786;6.892;2023-02-28T13:42:53;3.03;;;2.55;;
52668;SDS011;59898;52.786;6.892;2023-02-28T13:46:14;5.38;;;3.30;;
52668;SDS011;59898;52.786;6.892;2023-02-28T13:49:34;4.13;;;3.00;;
52668;SDS011;59898;52.786;6.892;2023-02-28T13:56:24;5.35;;;2.63;;
52668;SDS011;59898;52.786;6.892;2023-02-28T14:07:15;3.55;;;2.50;;
52668;SDS011;59898;52.786;6.892;2023-02-28T14:10:43;3.72;;;2.30;;
52668;SDS011;59898;52.786;6.892;2023-02-28T14:14:06;5.97;;;2.92;;
52668;SDS011;59898;52.786;6.892;2023-02-28T14:17:29;6.15;;;2.80;;
52668;SDS011;59898;52.786;6.892;2023-02-28T14:20:52;5.13;;;2.78;;
52668;SDS011;59898;52.786;6.892;2023-02-28T14:31:39;5.13;;;3.42;;
52668;SDS011;59898;52.786;6.892;2023-02-28T14:35:20;4.75;;;2.72;;
52668;SDS011;59898;52.786;6.892;2023-02-28T14:38:52;3.63;;;2.35;;
52668;SDS011;59898;52.786;6.892;2023-02-28T14:45:51;7.10;;;3.17;;
52668;SDS011;59898;52.786;6.892;2023-02-28T14:49:27;6.13;;;2.97;;
52668;SDS011;59898;52.786;6.892;2023-02-28T14:53:02;6.10;;;3.10;;
52668;SDS011;59898;52.786;6.892;2023-02-28T14:56:26;3.55;;;2.60;;
52668;SDS011;59898;52.786;6.892;2023-02-28T14:59:59;4.47;;;2.97;;
52668;SDS011;59898;52.786;6.892;2023-02-28T15:03:37;5.20;;;3.10;;
52668;SDS011;59898;52.786;6.892;2023-02-28T15:07:13;4.25;;;2.72;;
52668;SDS011;59898;52.786;6.892;2023-02-28T15:10:34;3.85;;;2.70;;
52668;SDS011;59898;52.786;6.892;2023-02-28T15:13:55;5.75;;;2.78;;
52668;SDS011;59898;52.786;6.892;2023-02-28T15:17:20;5.55;;;3.05;;
52668;SDS011;59898;52.786;6.892;2023-02-28T15:20:44;4.13;;;2.83;;
52668;SDS011;59898;52.786;6.892;2023-02-28T15:27:32;5.80;;;2.80;;
52668;SDS011;59898;52.786;6.892;2023-02-28T15:30:59;5.00;;;3.17;;
52668;SDS011;59898;52.786;6.892;2023-02-28T15:34:26;5.05;;;3.00;;
52668;SDS011;59898;52.786;6.892;2023-02-28T15:37:57;4.28;;;2.75;;
52668;SDS011;59898;52.786;6.892;2023-02-28T15:41:26;4.72;;;2.45;;
52668;SDS011;59898;52.786;6.892;2023-02-28T15:44:55;4.28;;;2.72;;
52668;SDS011;59898;52.786;6.892;2023-02-28T15:48:18;4.45;;;2.50;;
52668;SDS011;59898;52.786;6.892;2023-02-28T15:51:42;5.22;;;3.45;;
52668;SDS011;59898;52.786;6.892;2023-02-28T15:55:45;11.68;;;7.47;;
52668;SDS011;59898;52.786;6.892;2023-02-28T15:58:48;8.80;;;4.00;;
52668;SDS011;59898;52.786;6.892;2023-02-28T16:05:30;4.68;;;3.65;;
52668;SDS011;59898;52.786;6.892;2023-02-28T16:08:51;8.33;;;3.07;;
52668;SDS011;59898;52.786;6.892;2023-02-28T16:12:13;4.68;;;3.20;;
52668;SDS011;59898;52.786;6.892;2023-02-28T16:15:37;7.32;;;3.45;;
52668;SDS011;59898;52.786;6.892;2023-02-28T16:19:02;5.35;;;2.90;;
52668;SDS011;59898;52.786;6.892;2023-02-28T16:22:23;4.43;;;3.20;;
52668;SDS011;59898;52.786;6.892;2023-02-28T16:25:44;5.90;;;3.50;;
52668;SDS011;59898;52.786;6.892;2023-02-28T16:29:06;5.38;;;3.05;;
52668;SDS011;59898;52.786;6.892;2023-02-28T16:32:27;8.07;;;3.42;;
52668;SDS011;59898;52.786;6.892;2023-02-28T16:35:49;3.72;;;2.65;;
52668;SDS011;59898;52.786;6.892;2023-02-28T16:39:09;5.40;;;3.47;;
52668;SDS011;59898;52.786;6.892;2023-02-28T16:42:30;3.63;;;2.80;;
52668;SDS011;59898;52.786;6.892;2023-02-28T16:45:56;6.13;;;3.53;;
52668;SDS011;59898;52.786;6.892;2023-02-28T16:49:18;5.28;;;3.38;;
52668;SDS011;59898;52.786;6.892;2023-02-28T16:52:38;6.88;;;3.55;;
52668;SDS011;59898;52.786;6.892;2023-02-28T16:56:00;5.78;;;3.38;;
52668;SDS011;59898;52.786;6.892;2023-02-28T16:59:23;50.55;;;30.58;;
52668;SDS011;59898;52.786;6.892;2023-02-28T17:02:44;20.77;;;12.30;;
52668;SDS011;59898;52.786;6.892;2023-02-28T17:06:05;6.35;;;4.50;;
52668;SDS011;59898;52.786;6.892;2023-02-28T17:09:36;4.53;;;3.50;;
52668;SDS011;59898;52.786;6.892;2023-02-28T17:12:56;6.90;;;3.63;;
52668;SDS011;59898;52.786;6.892;2023-02-28T17:16:22;5.03;;;3.50;;
52668;SDS011;59898;52.786;6.892;2023-02-28T17:19:50;7.70;;;4.07;;
52668;SDS011;59898;52.786;6.892;2023-02-28T17:23:11;8.95;;;4.35;;
52668;SDS011;59898;52.786;6.892;2023-02-28T17:26:31;7.85;;;4.82;;
52668;SDS011;59898;52.786;6.892;2023-02-28T17:29:52;7.00;;;4.60;;
52668;SDS011;59898;52.786;6.892;2023-02-28T17:33:13;5.88;;;4.47;;
52668;SDS011;59898;52.786;6.892;2023-02-28T17:36:34;6.50;;;4.70;;
52668;SDS011;59898;52.786;6.892;2023-02-28T17:39:56;12.53;;;7.27;;
52668;SDS011;59898;52.786;6.892;2023-02-28T17:43:17;15.73;;;7.47;;
52668;SDS011;59898;52.786;6.892;2023-02-28T17:46:38;10.52;;;6.35;;
52668;SDS011;59898;52.786;6.892;2023-02-28T17:49:59;11.25;;;7.75;;
52668;SDS011;59898;52.786;6.892;2023-02-28T17:53:20;16.27;;;10.32;;
52668;SDS011;59898;52.786;6.892;2023-02-28T17:56:43;25.58;;;15.00;;
52668;SDS011;59898;52.786;6.892;2023-02-28T18:00:03;11.80;;;8.50;;
52668;SDS011;59898;52.786;6.892;2023-02-28T18:03:28;17.95;;;8.90;;
52668;SDS011;59898;52.786;6.892;2023-02-28T18:06:50;12.45;;;6.55;;
52668;SDS011;59898;52.786;6.892;2023-02-28T18:10:13;9.95;;;6.35;;
52668;SDS011;59898;52.786;6.892;2023-02-28T18:13:39;12.98;;;6.05;;
52668;SDS011;59898;52.786;6.892;2023-02-28T18:16:59;21.25;;;12.18;;
52668;SDS011;59898;52.786;6.892;2023-02-28T18:20:20;24.55;;;16.85;;
52668;SDS011;59898;52.786;6.892;2023-02-28T18:23:42;12.55;;;8.63;;
52668;SDS011;59898;52.786;6.892;2023-02-28T18:27:11;13.05;;;7.32;;
52668;SDS011;59898;52.786;6.892;2023-02-28T18:30:32;12.32;;;7.53;;
52668;SDS011;59898;52.786;6.892;2023-02-28T18:33:56;8.75;;;6.20;;
52668;SDS011;59898;52.786;6.892;2023-02-28T18:37:17;8.63;;;6.20;;
52668;SDS011;59898;52.786;6.892;2023-02-28T18:40:38;8.13;;;5.97;;
52668;SDS011;59898;52.786;6.892;2023-02-28T18:44:00;7.38;;;5.57;;
52668;SDS011;59898;52.786;6.892;2023-02-28T18:47:21;8.77;;;6.00;;
52668;SDS011;59898;52.786;6.892;2023-02-28T18:50:42;12.40;;;8.02;;
52668;SDS011;59898;52.786;6.892;2023-02-28T18:54:02;15.73;;;9.65;;
52668;SDS011;59898;52.786;6.892;2023-02-28T18:57:23;22.50;;;13.07;;
52668;SDS011;59898;52.786;6.892;2023-02-28T19:00:46;155.65;;;64.18;;
52668;SDS011;59898;52.786;6.892;2023-02-28T19:04:06;96.93;;;47.87;;
52668;SDS011;59898;52.786;6.892;2023-02-28T19:07:34;64.88;;;34.33;;
52668;SDS011;59898;52.786;6.892;2023-02-28T19:10:55;44.65;;;27.23;;
52668;SDS011;59898;52.786;6.892;2023-02-28T19:14:15;22.90;;;16.65;;
52668;SDS011;59898;52.786;6.892;2023-02-28T19:17:36;23.67;;;16.00;;
52668;SDS011;59898;52.786;6.892;2023-02-28T19:20:57;20.45;;;12.35;;
52668;SDS011;59898;52.786;6.892;2023-02-28T19:24:18;14.95;;;9.90;;
52668;SDS011;59898;52.786;6.892;2023-02-28T19:27:39;11.02;;;8.20;;
52668;SDS011;59898;52.786;6.892;2023-02-28T19:30:59;10.45;;;5.78;;
52668;SDS011;59898;52.786;6.892;2023-02-28T19:34:20;22.45;;;13.63;;
52668;SDS011;59898;52.786;6.892;2023-02-28T19:37:41;11.57;;;7.90;;
52668;SDS011;59898;52.786;6.892;2023-02-28T19:41:03;9.90;;;5.90;;
52668;SDS011;59898;52.786;6.892;2023-02-28T19:44:25;10.25;;;5.78;;
52668;SDS011;59898;52.786;6.892;2023-02-28T19:47:46;10.95;;;7.20;;
52668;SDS011;59898;52.786;6.892;2023-02-28T19:51:08;10.75;;;7.88;;
52668;SDS011;59898;52.786;6.892;2023-02-28T19:54:29;18.95;;;9.13;;
52668;SDS011;59898;52.786;6.892;2023-02-28T19:57:50;16.77;;;11.75;;
52668;SDS011;59898;52.786;6.892;2023-02-28T20:01:15;40.00;;;21.70;;
52668;SDS011;59898;52.786;6.892;2023-02-28T20:04:37;47.75;;;22.77;;
52668;SDS011;59898;52.786;6.892;2023-02-28T20:07:58;43.70;;;24.90;;
52668;SDS011;59898;52.786;6.892;2023-02-28T20:11:18;27.98;;;18.25;;
52668;SDS011;59898;52.786;6.892;2023-02-28T20:14:40;29.85;;;19.58;;
52668;SDS011;59898;52.786;6.892;2023-02-28T20:18:00;45.03;;;31.52;;
52668;SDS011;59898;52.786;6.892;2023-02-28T20:21:21;89.57;;;47.17;;
52668;SDS011;59898;52.786;6.892;2023-02-28T20:24:42;104.07;;;52.40;;
52668;SDS011;59898;52.786;6.892;2023-02-28T20:28:02;81.88;;;44.13;;
52668;SDS011;59898;52.786;6.892;2023-02-28T20:31:24;66.00;;;39.45;;
52668;SDS011;59898;52.786;6.892;2023-02-28T20:34:45;50.70;;;31.45;;
52668;SDS011;59898;52.786;6.892;2023-02-28T20:38:05;49.92;;;32.70;;
52668;SDS011;59898;52.786;6.892;2023-02-28T20:41:26;86.63;;;45.58;;
52668;SDS011;59898;52.786;6.892;2023-02-28T20:44:47;54.83;;;31.02;;
52668;SDS011;59898;52.786;6.892;2023-02-28T20:48:08;50.15;;;31.08;;
52668;SDS011;59898;52.786;6.892;2023-02-28T20:51:28;72.18;;;41.63;;
52668;SDS011;59898;52.786;6.892;2023-02-28T20:54:49;76.45;;;42.33;;
52668;SDS011;59898;52.786;6.892;2023-02-28T20:58:10;122.22;;;59.05;;
52668;SDS011;59898;52.786;6.892;2023-02-28T21:01:31;186.45;;;82.15;;
52668;SDS011;59898;52.786;6.892;2023-02-28T21:04:52;113.82;;;51.45;;
52668;SDS011;59898;52.786;6.892;2023-02-28T21:08:12;168.25;;;79.28;;
52668;SDS011;59898;52.786;6.892;2023-02-28T21:11:34;114.38;;;58.28;;
52668;SDS011;59898;52.786;6.892;2023-02-28T21:14:56;52.60;;;32.58;;
52668;SDS011;59898;52.786;6.892;2023-02-28T21:18:17;48.22;;;30.77;;
52668;SDS011;59898;52.786;6.892;2023-02-28T21:21:39;47.58;;;28.33;;
52668;SDS011;59898;52.786;6.892;2023-02-28T21:25:04;106.45;;;53.58;;
52668;SDS011;59898;52.786;6.892;2023-02-28T21:28:25;100.43;;;52.88;;
52668;SDS011;59898;52.786;6.892;2023-02-28T21:31:48;93.95;;;48.92;;
52668;SDS011;59898;52.786;6.892;2023-02-28T21:35:09;33.22;;;23.92;;
52668;SDS011;59898;52.786;6.892;2023-02-28T21:38:30;53.78;;;33.33;;
52668;SDS011;59898;52.786;6.892;2023-02-28T21:41:51;69.03;;;44.40;;
52668;SDS011;59898;52.786;6.892;2023-02-28T21:45:13;49.65;;;33.78;;
52668;SDS011;59898;52.786;6.892;2023-02-28T21:48:33;40.10;;;26.83;;
52668;SDS011;59898;52.786;6.892;2023-02-28T21:51:55;27.63;;;19.67;;
52668;SDS011;59898;52.786;6.892;2023-02-28T21:55:16;21.48;;;17.70;;
52668;SDS011;59898;52.786;6.892;2023-02-28T21:58:37;21.65;;;17.23;;
52668;SDS011;59898;52.786;6.892;2023-02-28T22:01:58;20.77;;;16.30;;
52668;SDS011;59898;52.786;6.892;2023-02-28T22:05:19;20.90;;;16.25;;
52668;SDS011;59898;52.786;6.892;2023-02-28T22:08:40;26.08;;;18.50;;
52668;SDS011;59898;52.786;6.892;2023-02-28T22:12:03;24.65;;;17.95;;
52668;SDS011;59898;52.786;6.892;2023-02-28T22:15:27;19.13;;;15.52;;
52668;SDS011;59898;52.786;6.892;2023-02-28T22:18:49;16.90;;;13.30;;
52668;SDS011;59898;52.786;6.892;2023-02-28T22:22:10;17.48;;;12.98;;
52668;SDS011;59898;52.786;6.892;2023-02-28T22:25:35;24.42;;;18.13;;
52668;SDS011;59898;52.786;6.892;2023-02-28T22:28:56;21.92;;;16.27;;
52668;SDS011;59898;52.786;6.892;2023-02-28T22:32:17;25.25;;;19.60;;
52668;SDS011;59898;52.786;6.892;2023-02-28T22:35:37;23.92;;;19.98;;
52668;SDS011;59898;52.786;6.892;2023-02-28T22:38:58;26.08;;;20.05;;
52668;SDS011;59898;52.786;6.892;2023-02-28T22:45:42;19.98;;;15.18;;
52668;SDS011;59898;52.786;6.892;2023-02-28T22:49:03;19.20;;;14.57;;
52668;SDS011;59898;52.786;6.892;2023-02-28T22:52:25;22.65;;;17.83;;
52668;SDS011;59898;52.786;6.892;2023-02-28T22:55:52;23.35;;;18.23;;
52668;SDS011;59898;52.786;6.892;2023-02-28T22:59:14;22.95;;;17.58;;
52668;SDS011;59898;52.786;6.892;2023-02-28T23:02:35;21.30;;;16.08;;